createdAt,value
2023-05-14T00:00:56.843Z,12.40
2023-05-14T00:03:23.887Z,12.30
2023-05-14T00:05:50.774Z,12.30
2023-05-14T00:08:17.922Z,12.30
2023-05-14T00:10:44.620Z,12.30
2023-05-14T00:13:11.277Z,12.30
2023-05-14T00:15:39.235Z,12.30
2023-05-14T00:18:06.971Z,12.20
2023-05-14T00:20:33.739Z,12.20
2023-05-14T00:23:00.611Z,12.20
2023-05-14T00:25:27.391Z,12.10
2023-05-14T00:27:54.043Z,12.00
2023-05-14T00:30:20.979Z,11.90
2023-05-14T00:32:47.875Z,11.90
2023-05-14T00:35:14.487Z,11.90
2023-05-14T00:37:41.175Z,11.90
2023-05-14T00:40:08.881Z,11.90
2023-05-14T00:42:35.932Z,11.80
2023-05-14T00:45:02.700Z,11.80
2023-05-14T00:47:29.523Z,11.80
2023-05-14T00:49:56.527Z,11.80
2023-05-14T00:52:23.302Z,11.80
2023-05-14T00:54:50.612Z,11.70
2023-05-14T00:57:18.942Z,11.70
2023-05-14T00:59:45.756Z,11.60
2023-05-14T01:02:12.476Z,11.60
2023-05-14T01:04:39.786Z,11.50
2023-05-14T01:07:23.971Z,11.40
2023-05-14T01:09:56.655Z,11.40
2023-05-14T01:12:38.477Z,11.40
2023-05-14T01:15:16.379Z,11.40
2023-05-14T01:17:48.857Z,11.40
2023-05-14T01:20:16.328Z,11.40
2023-05-14T01:22:43.172Z,11.30
2023-05-14T01:25:10.269Z,11.30
2023-05-14T01:28:00.841Z,11.30
2023-05-14T01:30:40.465Z,11.30
2023-05-14T01:33:12.206Z,11.30
2023-05-14T01:35:40.382Z,11.30
2023-05-14T01:38:10.614Z,11.30
2023-05-14T01:40:38.304Z,11.20
2023-05-14T01:43:06.009Z,11.30
2023-05-14T01:45:35.411Z,11.30
2023-05-14T01:48:02.416Z,11.30
2023-05-14T01:50:29.235Z,11.30
2023-05-14T01:52:56.537Z,11.30
2023-05-14T01:55:24.534Z,11.30
2023-05-14T01:57:52.419Z,11.30
2023-05-14T02:00:19.837Z,11.30
2023-05-14T02:02:46.733Z,11.20
2023-05-14T02:05:13.958Z,11.30
2023-05-14T02:07:40.580Z,11.30
2023-05-14T02:10:07.953Z,11.20
2023-05-14T02:12:34.637Z,11.20
2023-05-14T02:15:01.573Z,11.20
2023-05-14T02:17:28.225Z,11.20
2023-05-14T02:19:55.143Z,11.10
2023-05-14T02:22:21.757Z,11.10
2023-05-14T02:24:49.710Z,11.10
2023-05-14T02:27:16.373Z,11.00
2023-05-14T02:29:43.003Z,11.00
2023-05-14T02:32:10.072Z,11.00
2023-05-14T02:34:36.748Z,11.00
2023-05-14T02:37:03.773Z,11.00
2023-05-14T02:39:30.915Z,10.90
2023-05-14T02:41:57.560Z,10.90
2023-05-14T02:44:24.249Z,10.80
2023-05-14T02:46:50.934Z,10.80
2023-05-14T02:49:17.668Z,10.80
2023-05-14T02:51:44.376Z,10.70
2023-05-14T02:54:11.030Z,10.70
2023-05-14T02:56:37.699Z,10.70
2023-05-14T02:59:04.633Z,10.70
2023-05-14T03:01:31.982Z,10.60
2023-05-14T03:03:59.202Z,10.60
2023-05-14T03:06:25.884Z,10.60
2023-05-14T03:08:52.726Z,10.60
2023-05-14T03:11:19.479Z,10.50
2023-05-14T03:13:46.161Z,10.50
2023-05-14T03:16:13.022Z,10.50
2023-05-14T03:18:39.663Z,10.50
2023-05-14T03:21:06.737Z,10.40
2023-05-14T03:23:34.963Z,10.40
2023-05-14T03:26:02.187Z,10.40
2023-05-14T03:28:28.896Z,10.40
2023-05-14T03:30:55.600Z,10.30
2023-05-14T03:33:22.771Z,10.40
2023-05-14T03:35:49.463Z,10.40
2023-05-14T03:38:16.319Z,10.40
2023-05-14T03:40:43.970Z,10.50
2023-05-14T03:43:11.298Z,10.40
2023-05-14T03:45:39.311Z,10.50
2023-05-14T03:48:06.444Z,10.40
2023-05-14T03:50:33.185Z,10.40
2023-05-14T03:52:59.893Z,10.30
2023-05-14T03:55:26.625Z,10.40
2023-05-14T03:57:53.279Z,10.30
2023-05-14T04:00:20.133Z,10.20
2023-05-14T04:02:47.027Z,10.20
2023-05-14T04:05:13.767Z,10.20
2023-05-14T04:07:40.416Z,10.20
2023-05-14T04:10:07.664Z,10.20
2023-05-14T04:12:34.303Z,10.20
2023-05-14T04:15:01.382Z,10.20
2023-05-14T04:17:28.067Z,10.20
2023-05-14T04:19:54.670Z,10.30
2023-05-14T04:22:21.319Z,10.30
2023-05-14T04:24:47.913Z,10.40
2023-05-14T04:27:21.159Z,10.40
2023-05-14T04:29:49.177Z,10.50
2023-05-14T04:32:16.085Z,10.50
2023-05-14T04:34:42.811Z,10.50
2023-05-14T04:37:10.052Z,10.60
2023-05-14T04:39:36.769Z,10.60
2023-05-14T04:42:03.776Z,10.60
2023-05-14T04:44:30.436Z,10.70
2023-05-14T04:46:57.175Z,10.80
2023-05-14T04:49:23.867Z,10.80
2023-05-14T04:51:50.732Z,10.90
2023-05-14T04:54:17.482Z,10.90
2023-05-14T04:56:44.174Z,11.00
2023-05-14T04:59:10.873Z,11.10
2023-05-14T05:01:37.596Z,11.10
2023-05-14T05:04:04.497Z,11.20
2023-05-14T05:06:31.577Z,11.30
2023-05-14T05:08:59.571Z,11.20
2023-05-14T05:11:27.906Z,11.30
2023-05-14T05:13:54.581Z,11.30
2023-05-14T05:16:21.254Z,11.30
2023-05-14T05:18:47.980Z,11.30
2023-05-14T05:21:14.646Z,11.30
2023-05-14T05:23:42.394Z,11.40
2023-05-14T05:26:09.068Z,11.40
2023-05-14T05:28:35.759Z,11.40
2023-05-14T05:31:02.508Z,11.50
2023-05-14T05:33:29.328Z,11.50
2023-05-14T05:35:55.998Z,11.60
2023-05-14T05:38:22.706Z,11.70
2023-05-14T05:40:49.469Z,11.80
2023-05-14T05:43:16.628Z,11.80
2023-05-14T05:45:43.311Z,11.80
2023-05-14T05:48:10.002Z,11.90
2023-05-14T05:50:36.653Z,12.00
2023-05-14T05:53:03.896Z,12.00
2023-05-14T05:55:30.721Z,12.10
2023-05-14T05:57:57.447Z,12.20
2023-05-14T06:00:24.584Z,12.30
2023-05-14T06:02:51.698Z,12.40
2023-05-14T06:05:19.543Z,12.50
2023-05-14T06:07:46.224Z,12.60
2023-05-14T06:10:12.858Z,12.60
2023-05-14T06:12:40.366Z,12.70
2023-05-14T06:15:07.631Z,12.90
2023-05-14T06:17:34.430Z,13.10
2023-05-14T06:20:01.214Z,13.40
2023-05-14T06:22:27.930Z,13.50
2023-05-14T06:24:54.637Z,13.60
2023-05-14T06:27:21.369Z,13.80
2023-05-14T06:29:47.999Z,13.80
2023-05-14T06:32:17.581Z,14.00
2023-05-14T06:34:44.238Z,14.20
2023-05-14T06:37:11.315Z,14.70
2023-05-14T06:39:38.336Z,14.80
2023-05-14T06:42:05.883Z,14.90
2023-05-14T06:44:32.811Z,15.20
2023-05-14T06:46:59.480Z,15.70
2023-05-14T06:49:26.215Z,17.00
2023-05-14T06:51:54.165Z,18.40
2023-05-14T06:54:21.093Z,19.40
2023-05-14T06:56:47.747Z,20.20
2023-05-14T06:59:14.395Z,21.50
2023-05-14T07:01:41.488Z,21.20
2023-05-14T07:04:08.311Z,20.70
2023-05-14T07:06:35.282Z,20.20
2023-05-14T07:09:03.084Z,19.50
2023-05-14T07:11:30.058Z,19.30
2023-05-14T07:13:56.726Z,19.00
2023-05-14T07:16:23.488Z,18.70
2023-05-14T07:18:50.198Z,18.50
2023-05-14T07:21:16.986Z,18.30
2023-05-14T07:23:43.643Z,18.40
2023-05-14T07:26:10.730Z,18.50
2023-05-14T07:28:37.474Z,18.60
2023-05-14T07:31:09.013Z,18.70
2023-05-14T07:33:36.566Z,18.80
2023-05-14T07:36:03.255Z,18.90
2023-05-14T07:38:30.008Z,18.90
2023-05-14T07:40:56.807Z,19.30
2023-05-14T07:43:23.588Z,19.50
2023-05-14T07:45:50.243Z,19.80
2023-05-14T07:48:17.111Z,19.90
2023-05-14T07:50:44.166Z,20.30
2023-05-14T07:53:11.022Z,21.10
2023-05-14T07:55:37.647Z,21.90
2023-05-14T07:58:04.323Z,22.50
2023-05-14T08:00:31.392Z,23.10
2023-05-14T08:02:58.201Z,24.10
2023-05-14T08:05:25.050Z,24.50
2023-05-14T08:07:51.759Z,24.80
2023-05-14T08:10:18.464Z,25.00
2023-05-14T08:12:45.470Z,25.00
2023-05-14T08:15:12.535Z,24.80
2023-05-14T08:17:39.390Z,24.50
2023-05-14T08:20:06.942Z,24.10
2023-05-14T08:22:33.699Z,23.70
2023-05-14T08:25:01.577Z,23.60
2023-05-14T08:27:28.258Z,23.30
2023-05-14T08:29:54.974Z,23.00
2023-05-14T08:32:23.849Z,22.70
2023-05-14T08:34:51.947Z,22.50
2023-05-14T08:37:18.779Z,22.30
2023-05-14T08:39:45.530Z,22.20
2023-05-14T08:42:14.131Z,22.10
2023-05-14T08:44:50.011Z,22.00
2023-05-14T08:47:18.563Z,21.90
2023-05-14T08:49:47.574Z,21.80
2023-05-14T08:52:17.981Z,21.80
2023-05-14T08:54:46.833Z,21.70
2023-05-14T08:57:14.405Z,21.60
2023-05-14T08:59:41.266Z,21.60
2023-05-14T09:02:10.611Z,21.70
2023-05-14T09:04:37.700Z,21.60
2023-05-14T09:07:04.640Z,21.60
2023-05-14T09:09:31.537Z,21.70
2023-05-14T09:11:58.308Z,21.70
2023-05-14T09:14:25.050Z,21.70
2023-05-14T09:16:52.566Z,21.80
2023-05-14T09:21:58.537Z,21.80
2023-05-14T09:24:26.805Z,21.80
2023-05-14T09:26:56.188Z,21.80
2023-05-14T09:29:29.322Z,21.70
2023-05-14T09:31:57.918Z,21.70
2023-05-14T09:34:32.693Z,21.70
2023-05-14T09:37:04.982Z,21.80
2023-05-14T09:39:32.996Z,21.70
2023-05-14T09:41:59.843Z,21.70
2023-05-14T09:44:27.318Z,21.80
2023-05-14T09:46:54.699Z,21.90
2023-05-14T09:49:22.295Z,21.90
2023-05-14T09:51:50.217Z,21.90
2023-05-14T09:54:17.610Z,21.90
2023-05-14T09:56:44.849Z,21.80
2023-05-14T09:59:11.765Z,21.80
2023-05-14T10:01:39.449Z,21.80
2023-05-14T10:04:07.866Z,21.70
2023-05-14T10:06:38.157Z,21.70
2023-05-14T10:09:12.093Z,21.80
2023-05-14T10:11:51.588Z,21.80
2023-05-14T10:14:26.997Z,21.80
2023-05-14T10:16:56.209Z,22.00
2023-05-14T10:19:25.508Z,22.10
2023-05-14T10:21:57.150Z,22.10
2023-05-14T10:24:25.898Z,22.30
2023-05-14T10:26:53.327Z,22.50
2023-05-14T10:29:20.086Z,22.40
2023-05-14T10:31:51.332Z,22.30
2023-05-14T10:34:38.186Z,22.20
2023-05-14T10:37:07.227Z,22.20
2023-05-14T10:39:49.314Z,22.30
2023-05-14T10:42:23.036Z,22.40
2023-05-14T10:45:07.514Z,22.50
2023-05-14T10:47:36.492Z,22.50
2023-05-14T10:50:06.029Z,22.50
2023-05-14T10:52:35.794Z,22.50
2023-05-14T10:55:07.752Z,22.20
2023-05-14T10:57:37.986Z,21.90
2023-05-14T11:00:09.191Z,21.80
2023-05-14T11:02:38.427Z,21.80
2023-05-14T11:05:09.092Z,21.70
2023-05-14T11:07:36.815Z,22.00
2023-05-14T11:10:11.036Z,22.10
2023-05-14T11:12:40.678Z,22.20
2023-05-14T11:15:09.760Z,22.30
2023-05-14T11:17:37.949Z,22.40
2023-05-14T11:20:06.460Z,22.60
2023-05-14T11:22:34.204Z,22.50
2023-05-14T11:25:01.017Z,22.40
2023-05-14T11:27:27.854Z,22.20
2023-05-14T11:29:55.945Z,22.20
2023-05-14T11:32:22.864Z,22.20
2023-05-14T11:34:49.707Z,22.20
2023-05-14T11:37:17.008Z,22.40
2023-05-14T11:39:52.211Z,22.60
2023-05-14T11:42:19.759Z,22.80
2023-05-14T11:44:51.605Z,22.60
2023-05-14T11:47:20.938Z,22.30
2023-05-14T11:49:48.522Z,22.00
2023-05-14T11:52:16.378Z,21.70
2023-05-14T11:54:44.070Z,21.60
2023-05-14T11:57:16.244Z,21.80
2023-05-14T11:59:43.228Z,21.80
2023-05-14T12:02:15.650Z,21.90
2023-05-14T12:04:43.421Z,21.90
2023-05-14T12:07:12.656Z,22.10
2023-05-14T12:09:44.211Z,22.10
2023-05-14T12:12:12.905Z,22.10
2023-05-14T12:14:42.644Z,21.90
2023-05-14T12:17:23.363Z,21.60
2023-05-14T12:19:51.877Z,21.60
2023-05-14T12:22:21.114Z,21.70
2023-05-14T12:24:55.211Z,21.90
2023-05-14T12:27:24.085Z,22.00
2023-05-14T12:32:36.362Z,22.10
2023-05-14T12:35:03.479Z,22.10
2023-05-14T12:37:31.283Z,22.10
2023-05-14T12:39:58.150Z,22.20
2023-05-14T12:42:24.895Z,22.10
2023-05-14T12:44:51.937Z,22.00
2023-05-14T12:47:19.091Z,22.00
2023-05-14T12:49:45.904Z,21.90
2023-05-14T12:54:43.318Z,21.70
2023-05-14T12:57:10.366Z,21.70
2023-05-14T12:59:37.128Z,21.70
2023-05-14T13:02:03.990Z,21.70
2023-05-14T13:04:30.934Z,21.80
2023-05-14T13:06:57.838Z,21.90
2023-05-14T13:09:24.737Z,22.00
2023-05-14T13:11:51.442Z,22.20
2023-05-14T13:14:20.114Z,22.30
2023-05-14T13:16:47.050Z,22.40
2023-05-14T13:19:13.954Z,22.10
2023-05-14T13:21:41.056Z,21.90
2023-05-14T13:24:10.040Z,21.80
2023-05-14T13:26:37.771Z,21.60
2023-05-14T13:29:04.943Z,21.40
2023-05-14T13:31:31.810Z,21.20
2023-05-14T13:33:59.368Z,21.00
2023-05-14T13:36:26.297Z,20.90
2023-05-14T13:38:52.947Z,20.90
2023-05-14T13:41:19.680Z,21.00
2023-05-14T13:43:46.303Z,21.00
2023-05-14T13:46:13.022Z,21.10
2023-05-14T13:48:39.702Z,21.20
2023-05-14T13:51:06.482Z,21.10
2023-05-14T13:53:33.206Z,21.00
2023-05-14T13:56:01.642Z,21.00
2023-05-14T13:58:28.412Z,21.00
2023-05-14T14:00:55.342Z,21.20
2023-05-14T14:03:22.261Z,21.40
2023-05-14T14:05:49.132Z,21.60
2023-05-14T14:08:23.398Z,21.70
2023-05-14T14:10:51.729Z,21.70
2023-05-14T14:13:18.568Z,21.60
2023-05-14T14:15:45.309Z,21.60
2023-05-14T14:18:12.156Z,21.40
2023-05-14T14:20:38.892Z,21.40
2023-05-14T14:23:05.614Z,21.40
2023-05-14T14:25:32.407Z,21.30
2023-05-14T14:27:59.302Z,21.30
2023-05-14T14:30:25.967Z,21.30
2023-05-14T14:32:52.872Z,21.30
2023-05-14T14:35:20.281Z,21.30
2023-05-14T14:37:52.190Z,21.30
2023-05-14T14:40:19.406Z,21.30
2023-05-14T14:42:46.241Z,21.40
2023-05-14T14:45:13.137Z,21.40
2023-05-14T14:47:44.571Z,21.40
2023-05-14T14:50:12.517Z,21.30
2023-05-14T14:52:40.964Z,21.30
2023-05-14T14:55:08.025Z,21.30
2023-05-14T14:57:34.748Z,21.30
2023-05-14T15:00:02.574Z,21.40
2023-05-14T15:02:29.819Z,21.40
2023-05-14T15:04:56.616Z,21.40
2023-05-14T15:07:23.334Z,21.50
2023-05-14T15:09:50.331Z,21.40
2023-05-14T15:12:17.265Z,21.50
2023-05-14T15:14:44.092Z,21.50
2023-05-14T15:17:10.904Z,21.50
2023-05-14T15:19:37.673Z,21.50
2023-05-14T15:22:04.828Z,21.40
2023-05-14T15:24:31.567Z,21.40
2023-05-14T15:26:58.308Z,21.30
2023-05-14T15:29:25.153Z,21.20
2023-05-14T15:31:51.994Z,21.10
2023-05-14T15:34:18.735Z,21.00
2023-05-14T15:36:45.579Z,20.80
2023-05-14T15:39:12.833Z,20.60
2023-05-14T15:41:39.542Z,20.50
2023-05-14T15:44:06.459Z,20.30
2023-05-14T15:46:33.478Z,20.00
2023-05-14T15:49:00.205Z,19.80
2023-05-14T15:51:27.157Z,19.50
2023-05-14T15:53:55.320Z,19.20
2023-05-14T15:56:23.033Z,18.90
2023-05-14T15:58:49.966Z,18.70
2023-05-14T16:01:17.536Z,18.60
2023-05-14T16:03:44.815Z,18.50
2023-05-14T16:06:14.976Z,18.40
2023-05-14T16:08:42.313Z,18.30
2023-05-14T16:11:09.314Z,18.20
2023-05-14T16:13:37.961Z,18.20
2023-05-14T16:16:05.189Z,18.20
2023-05-14T16:18:32.566Z,18.10
2023-05-14T16:20:59.512Z,18.00
2023-05-14T16:23:29.038Z,18.00
2023-05-14T16:25:55.836Z,18.00
2023-05-14T16:28:22.582Z,18.10
2023-05-14T16:30:49.335Z,18.10
2023-05-14T16:33:16.498Z,18.10
2023-05-14T16:35:46.857Z,18.10
2023-05-14T16:38:14.040Z,18.10
2023-05-14T16:40:59.200Z,18.10
2023-05-14T16:43:26.812Z,18.10
2023-05-14T16:45:53.625Z,18.10
2023-05-14T16:48:20.785Z,18.10
2023-05-14T16:50:47.830Z,18.00
2023-05-14T16:53:14.976Z,17.80
2023-05-14T16:55:41.818Z,17.60
2023-05-14T16:58:10.541Z,17.50
2023-05-14T17:00:38.278Z,17.40
2023-05-14T17:03:06.448Z,17.30
2023-05-14T17:05:34.950Z,17.20
2023-05-14T17:08:01.918Z,17.20
2023-05-14T17:10:30.192Z,17.10
2023-05-14T17:13:05.793Z,17.10
2023-05-14T17:15:33.583Z,17.10
2023-05-14T17:18:00.423Z,17.00
2023-05-14T17:20:28.797Z,17.00
2023-05-14T17:22:55.847Z,16.80
2023-05-14T17:25:24.172Z,16.80
2023-05-14T17:27:51.868Z,16.70
2023-05-14T17:30:18.549Z,16.70
2023-05-14T17:32:45.437Z,16.60
2023-05-14T17:35:14.680Z,16.60
2023-05-14T17:37:42.926Z,16.60
2023-05-14T17:40:12.268Z,16.60
2023-05-14T17:42:38.965Z,16.50
2023-05-14T17:45:08.820Z,16.50
2023-05-14T17:47:35.580Z,16.40
2023-05-14T17:50:02.519Z,16.40
2023-05-14T17:52:29.339Z,16.30
2023-05-14T17:54:56.039Z,16.30
2023-05-14T17:57:23.114Z,16.20
2023-05-14T17:59:49.784Z,16.20
2023-05-14T18:02:16.489Z,16.20
2023-05-14T18:04:44.191Z,16.20
2023-05-14T18:07:11.003Z,16.20
2023-05-14T18:09:37.914Z,16.10
2023-05-14T18:12:04.910Z,16.10
2023-05-14T18:14:31.601Z,16.10
2023-05-14T18:16:58.429Z,16.00
2023-05-14T18:19:25.419Z,16.00
2023-05-14T18:21:52.583Z,15.90
2023-05-14T18:24:19.278Z,15.80
2023-05-14T18:26:46.061Z,15.80
2023-05-14T18:29:12.733Z,15.80
2023-05-14T18:31:39.516Z,15.70
2023-05-14T18:34:06.433Z,15.70
2023-05-14T18:36:33.474Z,15.60
2023-05-14T18:39:00.371Z,15.60
2023-05-14T18:41:27.267Z,15.50
2023-05-14T18:43:54.481Z,15.50
2023-05-14T18:46:21.237Z,15.50
2023-05-14T18:48:48.387Z,15.40
2023-05-14T18:51:15.391Z,15.30
2023-05-14T18:53:45.632Z,15.30
2023-05-14T18:56:12.537Z,15.20
2023-05-14T18:58:39.347Z,15.10
2023-05-14T19:01:06.375Z,15.00
2023-05-14T19:03:33.905Z,15.00
2023-05-14T19:06:00.767Z,15.00
2023-05-14T19:08:27.509Z,15.00
2023-05-14T19:10:54.190Z,15.00
2023-05-14T19:13:23.792Z,15.00
2023-05-14T19:15:50.687Z,15.00
2023-05-14T19:18:17.653Z,14.90
2023-05-14T19:20:46.552Z,14.90
2023-05-14T19:23:13.819Z,14.90
2023-05-14T19:25:40.636Z,14.90
2023-05-14T19:28:07.472Z,14.80
2023-05-14T19:30:34.246Z,14.80
2023-05-14T19:33:01.540Z,14.70
2023-05-14T19:35:28.665Z,14.80
2023-05-14T19:37:55.610Z,14.80
2023-05-14T19:40:22.406Z,14.70
2023-05-14T19:42:49.132Z,14.80
2023-05-14T19:45:16.213Z,14.90
2023-05-14T19:47:43.322Z,14.90
2023-05-14T19:50:11.243Z,14.90
2023-05-14T19:52:39.353Z,14.90
2023-05-14T19:55:06.671Z,14.90
2023-05-14T19:57:33.479Z,14.90
2023-05-14T20:00:00.248Z,14.90
2023-05-14T20:02:27.099Z,14.80
2023-05-14T20:04:56.750Z,14.80
2023-05-14T20:07:25.054Z,14.80
2023-05-14T20:09:51.972Z,14.70
2023-05-14T20:15:07.815Z,14.70
2023-05-14T20:17:34.697Z,14.60
2023-05-14T20:20:01.703Z,14.60
2023-05-14T20:22:28.541Z,14.60
2023-05-14T20:24:55.645Z,14.50
2023-05-14T20:27:22.746Z,14.50
2023-05-14T20:29:51.439Z,14.40
2023-05-14T20:32:18.380Z,14.40
2023-05-14T20:34:45.212Z,14.30
2023-05-14T20:37:11.999Z,14.30
2023-05-14T20:39:38.830Z,14.30
2023-05-14T20:42:06.001Z,14.20
2023-05-14T20:44:32.820Z,14.20
2023-05-14T20:46:59.740Z,14.20
2023-05-14T20:49:26.592Z,14.10
2023-05-14T20:51:53.343Z,14.10
2023-05-14T20:54:19.982Z,14.10
2023-05-14T20:56:46.698Z,14.10
2023-05-14T20:59:13.450Z,14.10
2023-05-14T21:01:42.546Z,14.10
2023-05-14T21:04:09.753Z,14.20
2023-05-14T21:06:36.759Z,14.20
2023-05-14T21:09:03.684Z,14.20
2023-05-14T21:11:30.354Z,14.20
2023-05-14T21:13:57.436Z,14.10
2023-05-14T21:16:24.211Z,14.20
2023-05-14T21:18:51.049Z,14.10
2023-05-14T21:21:17.783Z,14.10
2023-05-14T21:23:44.558Z,14.10
2023-05-14T21:26:11.459Z,14.10
2023-05-14T21:28:38.233Z,14.00
2023-05-14T21:31:05.060Z,14.00
2023-05-14T21:33:31.856Z,14.00
2023-05-14T21:35:58.967Z,14.00
2023-05-14T21:38:25.809Z,14.00
2023-05-14T21:40:52.538Z,13.90
2023-05-14T21:43:19.345Z,13.90
2023-05-14T21:45:49.226Z,13.80
2023-05-14T21:48:16.228Z,13.80
2023-05-14T21:50:43.730Z,13.80
2023-05-14T21:53:10.433Z,13.80
2023-05-14T21:55:37.192Z,13.70
2023-05-14T21:58:04.050Z,13.70
2023-05-14T22:00:34.558Z,13.70
2023-05-14T22:03:01.987Z,13.70
2023-05-14T22:05:29.372Z,13.60
2023-05-14T22:07:56.701Z,13.60
2023-05-14T22:10:23.982Z,13.60
2023-05-14T22:12:50.692Z,13.60
2023-05-14T22:15:17.605Z,13.60
2023-05-14T22:17:44.458Z,13.50
2023-05-14T22:20:11.394Z,13.60
2023-05-14T22:22:38.734Z,13.50
2023-05-14T22:25:05.967Z,13.50
2023-05-14T22:27:32.855Z,13.50
2023-05-14T22:29:59.772Z,13.50
2023-05-14T22:32:26.643Z,13.40
2023-05-14T22:34:53.494Z,13.40
2023-05-14T22:37:20.221Z,13.40
2023-05-14T22:39:47.018Z,13.40
2023-05-14T22:42:13.873Z,13.30
2023-05-14T22:44:40.602Z,13.30
2023-05-14T22:47:07.353Z,13.30
2023-05-14T22:49:34.056Z,13.30
2023-05-14T22:52:01.326Z,13.30
2023-05-14T22:54:28.091Z,13.30
2023-05-14T22:56:54.789Z,13.20
2023-05-14T22:59:23.544Z,13.20
2023-05-14T23:01:50.802Z,13.20
2023-05-14T23:04:17.513Z,13.20
2023-05-14T23:06:45.251Z,13.20
2023-05-14T23:09:11.881Z,13.10
2023-05-14T23:11:38.877Z,13.10
2023-05-14T23:14:05.883Z,13.10
2023-05-14T23:16:32.598Z,13.10
2023-05-14T23:18:59.393Z,13.20
2023-05-14T23:21:26.383Z,13.10
2023-05-14T23:23:53.033Z,13.10
2023-05-14T23:26:19.703Z,13.10
2023-05-14T23:28:47.371Z,13.10
2023-05-14T23:31:14.144Z,13.00
2023-05-14T23:33:41.082Z,13.00
2023-05-14T23:36:08.356Z,13.00
2023-05-14T23:38:35.363Z,13.00
2023-05-14T23:41:02.406Z,12.90
2023-05-14T23:46:11.711Z,12.90
2023-05-14T23:48:38.482Z,12.90
2023-05-14T23:51:05.243Z,12.90
2023-05-14T23:53:31.991Z,12.90
2023-05-14T23:55:58.858Z,12.90
2023-05-14T23:58:26.270Z,12.90
